Time;durP1;ratioP1;P1;durP2;ratioP2;P2;SDS_P1;SDS_P2;PMS_P1;PMS_P2;Temp;Humidity;BMP_temperature;BMP_pressure;BME280_temperature;BME280_humidity;BME280_pressure;Samples;Min_cycle;Max_cycle;Signal;HPM_P1;HPM_P2
2021/11/21 05:01:39;;;;;;;11.30;7.28;;;9.20;99.90;;;;;;5431463;23;20594;-71
2021/11/21 05:04:06;;;;;;;14.73;8.38;;;9.20;99.90;;;;;;4992320;28;20216;-69
2021/11/21 05:06:33;;;;;;;13.38;7.22;;;9.20;99.90;;;;;;5012527;28;20199;-71
2021/11/21 05:09:01;;;;;;;12.60;7.05;;;9.10;99.90;;;;;;4996239;28;20215;-71
2021/11/21 05:11:27;;;;;;;12.70;7.70;;;9.20;99.90;;;;;;4993616;28;20234;-71
2021/11/21 05:13:55;;;;;;;10.10;5.85;;;9.10;99.90;;;;;;4989701;28;20203;-71
2021/11/21 05:16:21;;;;;;;8.00;5.50;;;9.20;99.90;;;;;;4993274;28;20295;-70
2021/11/21 05:18:49;;;;;;;3.50;3.20;;;9.20;99.90;;;;;;4992948;28;20212;-71
2021/11/21 05:21:17;;;;;;;3.67;3.38;;;9.10;99.90;;;;;;4993448;28;20235;-71
2021/11/21 05:23:44;;;;;;;2.70;2.50;;;9.10;99.90;;;;;;4993015;28;20211;-70
2021/11/21 05:26:11;;;;;;;3.60;3.17;;;9.10;99.90;;;;;;4993283;28;20207;-71
2021/11/21 05:28:38;;;;;;;4.55;2.78;;;9.10;99.90;;;;;;4992677;28;20700;-71
2021/11/21 05:31:04;;;;;;;2.10;2.00;;;9.10;99.90;;;;;;4992901;28;20239;-71
2021/11/21 05:33:31;;;;;;;1.60;1.60;;;9.10;99.90;;;;;;4992975;28;20231;-70
2021/11/21 05:35:59;;;;;;;1.17;1.00;;;9.10;99.90;;;;;;4988248;28;20550;-70
2021/11/21 05:38:26;;;;;;;1.77;1.40;;;9.10;99.90;;;;;;4992365;28;20208;-71
2021/11/21 05:40:53;;;;;;;1.50;1.40;;;9.10;99.90;;;;;;4992743;28;20253;-71
2021/11/21 05:43:19;;;;;;;1.83;1.50;;;9.00;99.90;;;;;;4992426;28;20204;-70
2021/11/21 05:45:46;;;;;;;1.25;1.13;;;9.00;99.90;;;;;;4992206;28;20296;-70
2021/11/21 05:48:13;;;;;;;1.90;1.52;;;9.00;99.90;;;;;;4992147;28;20204;-71
2021/11/21 05:50:39;;;;;;;2.90;1.65;;;9.10;99.90;;;;;;4992446;28;20599;-70
2021/11/21 05:53:07;;;;;;;1.98;1.88;;;9.10;99.90;;;;;;4992288;28;20220;-71
2021/11/21 05:55:34;;;;;;;3.58;2.05;;;9.10;99.90;;;;;;4992364;28;20600;-70
2021/11/21 05:58:01;;;;;;;1.63;1.60;;;9.10;99.90;;;;;;4992085;28;20208;-70
2021/11/21 06:00:29;;;;;;;1.63;1.50;;;9.00;99.90;;;;;;4991170;28;20196;-70
2021/11/21 06:02:56;;;;;;;2.45;2.25;;;9.00;99.90;;;;;;4992109;28;20227;-70
2021/11/21 06:05:23;;;;;;;1.45;1.45;;;9.00;99.90;;;;;;4992100;28;20212;-70
2021/11/21 06:07:50;;;;;;;1.65;1.55;;;9.10;99.90;;;;;;4992337;28;20219;-71
2021/11/21 06:10:18;;;;;;;2.13;1.90;;;9.10;99.90;;;;;;4992033;28;20204;-71
2021/11/21 06:12:45;;;;;;;2.05;1.88;;;9.00;99.90;;;;;;4989718;28;20220;-70
2021/11/21 06:15:12;;;;;;;2.03;1.92;;;9.00;99.90;;;;;;4991179;28;20274;-70
2021/11/21 06:17:39;;;;;;;2.38;2.22;;;9.10;99.90;;;;;;4991995;28;20562;-71
2021/11/21 06:20:08;;;;;;;2.42;2.22;;;9.00;99.90;;;;;;4991582;28;20679;-70
2021/11/21 06:22:37;;;;;;;2.00;1.90;;;9.00;99.90;;;;;;4992131;28;20274;-71
2021/11/21 06:25:04;;;;;;;2.15;2.05;;;9.10;99.90;;;;;;4989564;28;20298;-71
2021/11/21 06:27:32;;;;;;;1.98;1.88;;;9.10;99.90;;;;;;4992146;28;20286;-70
2021/11/21 06:29:59;;;;;;;2.20;2.08;;;9.10;99.90;;;;;;4990947;28;20215;-70
2021/11/21 06:32:26;;;;;;;2.00;1.90;;;9.10;99.90;;;;;;4991690;28;20235;-71
2021/11/21 06:34:53;;;;;;;3.40;3.13;;;9.10;99.90;;;;;;4991833;28;20291;-71
2021/11/21 06:37:20;;;;;;;2.45;2.15;;;9.10;99.90;;;;;;4992176;28;20215;-71
2021/11/21 06:39:47;;;;;;;2.72;2.55;;;9.10;99.90;;;;;;4991193;28;20211;-71
2021/11/21 06:42:14;;;;;;;5.47;2.78;;;9.00;99.90;;;;;;4992149;28;20227;-70
2021/11/21 06:44:43;;;;;;;9.68;2.80;;;9.00;99.90;;;;;;4990943;28;20215;-70
2021/11/21 06:47:10;;;;;;;4.00;2.33;;;9.00;99.90;;;;;;4991910;28;20207;-70
2021/11/21 06:49:36;;;;;;;1.98;1.73;;;9.00;99.90;;;;;;4991461;28;20219;-71
2021/11/21 06:52:04;;;;;;;8.38;2.17;;;8.90;99.90;;;;;;4992228;28;20228;-70
2021/11/21 06:54:30;;;;;;;8.40;1.98;;;8.80;99.90;;;;;;4991520;28;20215;-71
2021/11/21 06:56:57;;;;;;;2.40;1.88;;;8.80;99.90;;;;;;4991193;28;20199;-71
2021/11/21 06:59:24;;;;;;;6.43;1.73;;;8.70;99.90;;;;;;4990127;28;20200;-71
2021/11/21 07:01:52;;;;;;;3.50;1.65;;;8.60;99.90;;;;;;4991403;28;20322;-71
2021/11/21 07:04:19;;;;;;;5.22;1.45;;;8.60;99.90;;;;;;4991356;28;20207;-70
2021/11/21 07:06:47;;;;;;;6.82;1.65;;;8.50;99.90;;;;;;4990961;28;20199;-71
2021/11/21 07:09:15;;;;;;;12.13;2.25;;;8.40;99.90;;;;;;4990941;28;20211;-71
2021/11/21 07:11:44;;;;;;;2.92;1.75;;;8.40;99.90;;;;;;4991398;28;20239;-71
2021/11/21 07:14:11;;;;;;;5.75;1.90;;;8.40;99.90;;;;;;4989632;28;20275;-71
2021/11/21 07:16:39;;;;;;;11.57;2.65;;;8.40;99.90;;;;;;4988995;28;20249;-71
2021/11/21 07:19:07;;;;;;;2.42;1.40;;;8.40;99.90;;;;;;4990388;28;20219;-70
2021/11/21 07:21:34;;;;;;;13.90;2.53;;;8.40;99.90;;;;;;4991442;28;20577;-71
2021/11/21 07:24:00;;;;;;;5.95;1.52;;;8.40;99.90;;;;;;4991250;28;20204;-71
2021/11/21 07:26:27;;;;;;;9.50;2.50;;;8.40;99.90;;;;;;4995308;28;20215;-71
2021/11/21 07:28:54;;;;;;;21.02;11.20;;;8.40;99.90;;;;;;4993833;28;20215;-69
2021/11/21 07:31:20;;;;;;;11.10;2.53;;;8.40;99.90;;;;;;4995071;28;20727;-71
2021/11/21 07:33:47;;;;;;;4.70;2.30;;;8.40;99.90;;;;;;4994769;28;20223;-71
2021/11/21 07:36:15;;;;;;;4.85;2.78;;;8.40;99.90;;;;;;4995011;28;20211;-72
2021/11/21 07:38:42;;;;;;;8.95;2.80;;;8.40;99.90;;;;;;4994521;28;20214;-71
2021/11/21 07:41:09;;;;;;;4.82;1.92;;;8.40;99.90;;;;;;4994987;28;20263;-71
2021/11/21 07:43:35;;;;;;;7.22;2.67;;;8.40;99.90;;;;;;4994412;28;20207;-71
2021/11/21 07:46:02;;;;;;;8.88;2.33;;;8.40;99.90;;;;;;4994736;28;20231;-70
2021/11/21 07:48:30;;;;;;;8.07;2.30;;;8.40;99.90;;;;;;4991640;28;20204;-69
2021/11/21 07:50:57;;;;;;;7.45;1.67;;;8.40;99.90;;;;;;4994596;28;20228;-69
2021/11/21 07:53:26;;;;;;;8.38;2.50;;;8.40;99.90;;;;;;4994552;28;20219;-69
2021/11/21 07:55:53;;;;;;;5.82;1.63;;;8.40;99.90;;;;;;4994203;28;20287;-70
2021/11/21 07:58:20;;;;;;;3.03;2.08;;;8.40;99.90;;;;;;4994605;28;20227;-70
2021/11/21 08:00:46;;;;;;;6.07;2.60;;;8.50;99.90;;;;;;4993225;28;20228;-70
2021/11/21 08:03:13;;;;;;;7.07;2.38;;;8.50;99.90;;;;;;4989770;28;20638;-70
2021/11/21 08:05:40;;;;;;;6.32;2.20;;;8.50;99.90;;;;;;4994263;28;20211;-71
2021/11/21 08:08:08;;;;;;;8.35;2.95;;;8.60;99.90;;;;;;4994469;28;20212;-70
2021/11/21 08:10:37;;;;;;;5.53;2.60;;;8.60;99.90;;;;;;4993957;28;20602;-71
2021/11/21 08:13:04;;;;;;;9.70;2.63;;;8.60;99.90;;;;;;4994020;28;20319;-71
2021/11/21 08:15:31;;;;;;;3.35;2.10;;;8.60;99.90;;;;;;5003096;28;20686;-70
2021/11/21 08:17:58;;;;;;;8.48;3.33;;;8.70;99.90;;;;;;4993883;28;20204;-72
2021/11/21 08:20:26;;;;;;;6.95;3.05;;;8.70;99.90;;;;;;4993648;28;20200;-72
2021/11/21 08:22:53;;;;;;;5.38;3.03;;;8.70;99.90;;;;;;4994208;28;20748;-71
2021/11/21 08:25:19;;;;;;;8.77;2.80;;;8.70;99.90;;;;;;4993805;28;20684;-72
2021/11/21 08:27:47;;;;;;;5.50;3.20;;;8.70;99.90;;;;;;4994033;28;20204;-72
2021/11/21 08:30:14;;;;;;;12.73;2.90;;;8.70;99.90;;;;;;4993108;28;20260;-72
2021/11/21 08:32:41;;;;;;;10.88;4.13;;;8.70;99.90;;;;;;4994977;28;20220;-72
2021/11/21 08:35:08;;;;;;;7.82;3.08;;;8.80;99.90;;;;;;4989340;28;20215;-72
2021/11/21 08:37:35;;;;;;;4.47;3.40;;;8.80;99.90;;;;;;4993001;28;20200;-72
2021/11/21 08:40:02;;;;;;;8.30;3.17;;;8.80;99.90;;;;;;4994465;28;20216;-71
2021/11/21 08:42:29;;;;;;;9.90;3.03;;;8.80;99.90;;;;;;4993767;28;20223;-71
2021/11/21 08:44:57;;;;;;;6.15;3.90;;;8.80;99.90;;;;;;4992935;28;20243;-71
2021/11/21 08:47:23;;;;;;;6.18;4.40;;;8.80;99.90;;;;;;4993846;28;20200;-71
2021/11/21 08:49:50;;;;;;;6.30;4.47;;;8.90;99.90;;;;;;4993183;28;20232;-71
2021/11/21 08:52:17;;;;;;;8.63;6.00;;;8.90;99.90;;;;;;4991757;28;20588;-72
2021/11/21 08:54:43;;;;;;;18.67;13.43;;;8.90;99.90;;;;;;4993101;28;20250;-72
2021/11/21 08:57:11;;;;;;;24.48;9.18;;;8.90;99.90;;;;;;4993766;28;20607;-71
2021/11/21 08:59:38;;;;;;;8.93;5.38;;;8.90;99.90;;;;;;5019250;23;20339;-74
2021/11/21 09:02:06;;;;;;;12.07;8.05;;;8.90;99.90;;;;;;4997763;28;20659;-74
2021/11/21 09:04:32;;;;;;;19.55;10.98;;;8.90;99.90;;;;;;5013628;28;20199;-74
2021/11/21 09:06:59;;;;;;;7.15;5.28;;;8.90;99.90;;;;;;5012589;28;20215;-74
2021/11/21 09:09:26;;;;;;;5.85;4.57;;;8.90;99.90;;;;;;4994147;28;20246;-74
2021/11/21 09:11:53;;;;;;;10.27;5.43;;;9.00;99.90;;;;;;4988234;28;20204;-75
2021/11/21 09:14:19;;;;;;;5.13;4.45;;;9.00;99.90;;;;;;4991338;28;20578;-73
2021/11/21 09:16:46;;;;;;;5.93;3.97;;;9.00;99.90;;;;;;4994299;28;20656;-73
2021/11/21 09:19:14;;;;;;;4.97;4.05;;;9.00;99.90;;;;;;4975599;28;20228;-74
2021/11/21 09:21:42;;;;;;;4.13;3.70;;;9.00;99.90;;;;;;4974410;28;20216;-74
2021/11/21 09:24:09;;;;;;;7.60;4.82;;;9.00;99.90;;;;;;4990521;28;20226;-74
2021/11/21 09:26:36;;;;;;;4.57;3.65;;;9.00;99.90;;;;;;4993033;28;20211;-74
2021/11/21 09:29:03;;;;;;;5.20;4.25;;;9.00;99.90;;;;;;4976786;28;20228;-72
2021/11/21 09:31:29;;;;;;;3.65;3.35;;;9.10;99.90;;;;;;4973813;28;20215;-75
2021/11/21 09:33:56;;;;;;;10.32;4.40;;;9.10;99.90;;;;;;4984705;28;20235;-75
2021/11/21 09:36:24;;;;;;;11.35;5.10;;;9.10;99.90;;;;;;4973703;28;20680;-75
2021/11/21 09:38:51;;;;;;;9.57;5.28;;;9.10;99.90;;;;;;4980676;28;20240;-75
2021/11/21 09:41:18;;;;;;;9.40;4.75;;;9.20;99.90;;;;;;4993086;28;20207;-75
2021/11/21 09:43:45;;;;;;;9.80;4.47;;;9.20;99.90;;;;;;4990642;28;20215;-75
2021/11/21 09:46:14;;;;;;;8.43;3.72;;;9.20;99.90;;;;;;4983221;28;20214;-75
2021/11/21 09:48:41;;;;;;;11.32;4.35;;;9.20;99.90;;;;;;4992397;28;20310;-75
2021/11/21 09:51:07;;;;;;;4.05;3.60;;;9.30;99.90;;;;;;4990728;28;20219;-75
2021/11/21 09:53:36;;;;;;;5.80;3.65;;;9.30;99.90;;;;;;4992308;28;20220;-75
2021/11/21 09:56:03;;;;;;;7.88;4.50;;;9.40;99.90;;;;;;4992806;28;20219;-75
2021/11/21 09:58:29;;;;;;;4.30;3.05;;;9.30;99.90;;;;;;4990186;28;20319;-75
2021/11/21 10:00:56;;;;;;;4.53;3.60;;;9.30;99.90;;;;;;4993552;28;20204;-75
2021/11/21 10:03:23;;;;;;;2.72;2.53;;;9.30;99.90;;;;;;4987731;28;20199;-75
2021/11/21 10:05:53;;;;;;;7.45;4.78;;;9.40;99.90;;;;;;4988332;28;20311;-75
2021/11/21 10:08:22;;;;;;;9.40;4.47;;;9.30;99.90;;;;;;4994027;28;20215;-75
2021/11/21 10:10:52;;;;;;;5.97;4.20;;;9.40;99.90;;;;;;4989490;28;20211;-75
2021/11/21 10:13:34;;;;;;;4.10;3.20;;;9.40;99.90;;;;;;5001341;28;20219;-75
2021/11/21 10:16:28;;;;;;;5.38;3.03;;;9.40;99.90;;;;;;4970865;28;20296;-75
2021/11/21 10:18:57;;;;;;;9.73;3.38;;;9.40;99.90;;;;;;4986913;28;20224;-73
2021/11/21 10:21:25;;;;;;;7.50;4.30;;;9.50;99.90;;;;;;4977791;28;20209;-73
2021/11/21 10:24:10;;;;;;;15.68;9.27;;;9.50;99.90;;;;;;4991016;28;20323;-73
2021/11/21 10:26:39;;;;;;;22.88;12.43;;;9.60;99.90;;;;;;4988691;28;20211;-73
2021/11/21 10:29:24;;;;;;;10.80;5.40;;;9.70;99.90;;;;;;4971747;28;20308;-73
2021/11/21 10:31:51;;;;;;;15.45;9.02;;;9.70;99.90;;;;;;4986209;28;20200;-74
2021/11/21 10:34:18;;;;;;;24.90;8.82;;;9.80;99.90;;;;;;4983938;28;20324;-73
2021/11/21 10:36:44;;;;;;;17.63;7.90;;;9.90;99.90;;;;;;4992318;28;20669;-73
2021/11/21 10:39:12;;;;;;;21.13;11.10;;;9.90;99.90;;;;;;4991050;28;20235;-75
2021/11/21 10:41:44;;;;;;;18.92;9.30;;;9.90;99.90;;;;;;4976289;28;20204;-74
2021/11/21 10:44:13;;;;;;;11.07;6.63;;;9.90;99.90;;;;;;4977752;28;20204;-74
2021/11/21 10:46:43;;;;;;;14.23;5.00;;;9.90;99.90;;;;;;4990931;28;20204;-74
2021/11/21 10:49:16;;;;;;;9.80;3.75;;;9.80;99.90;;;;;;4989313;28;20219;-74
2021/11/21 10:51:44;;;;;;;8.60;4.50;;;9.80;99.90;;;;;;4972617;28;20700;-74
2021/11/21 10:54:18;;;;;;;3.63;2.75;;;9.80;99.90;;;;;;5002524;28;20215;-74
2021/11/21 10:56:47;;;;;;;4.13;3.78;;;9.80;99.90;;;;;;5007981;28;20230;-74
2021/11/21 10:59:14;;;;;;;7.13;3.22;;;9.80;99.90;;;;;;4977223;28;20639;-74
2021/11/21 11:01:41;;;;;;;7.78;6.90;;;9.80;99.90;;;;;;4988562;28;20200;-73
2021/11/21 11:04:10;;;;;;;4.25;2.90;;;9.80;99.90;;;;;;4972500;28;20216;-73
2021/11/21 11:06:37;;;;;;;5.38;4.13;;;9.90;99.90;;;;;;4973092;28;20322;-74
2021/11/21 11:09:22;;;;;;;5.63;2.67;;;10.00;99.90;;;;;;4972731;28;20255;-74
2021/11/21 11:11:52;;;;;;;5.35;3.63;;;10.00;99.90;;;;;;4981552;28;20214;-74
2021/11/21 11:14:20;;;;;;;6.15;2.30;;;9.90;99.90;;;;;;4971521;28;20232;-73
2021/11/21 11:16:49;;;;;;;7.78;4.80;;;9.90;99.90;;;;;;4981049;28;20208;-74
2021/11/21 11:19:18;;;;;;;6.88;2.78;;;9.90;99.90;;;;;;4986753;28;20228;-73
2021/11/21 11:21:47;;;;;;;8.98;3.05;;;9.90;99.90;;;;;;4989172;28;20562;-73
2021/11/21 11:24:15;;;;;;;6.10;2.17;;;9.90;99.90;;;;;;4993651;28;20208;-73
2021/11/21 11:26:41;;;;;;;3.70;1.98;;;9.90;99.90;;;;;;4997985;28;20556;-72
2021/11/21 11:29:17;;;;;;;7.82;2.03;;;9.90;99.90;;;;;;4980108;28;20232;-72
2021/11/21 11:31:43;;;;;;;2.20;1.92;;;9.90;99.90;;;;;;4985210;28;20204;-73
2021/11/21 11:34:35;;;;;;;3.38;1.73;;;10.00;99.90;;;;;;4979000;28;20232;-73
2021/11/21 11:37:03;;;;;;;4.68;2.95;;;10.10;99.90;;;;;;4979223;28;20200;-73
2021/11/21 11:39:39;;;;;;;3.05;1.63;;;10.10;99.90;;;;;;4984485;28;20815;-74
2021/11/21 11:42:37;;;;;;;4.38;2.45;;;10.10;99.90;;;;;;4988347;28;20231;-74
2021/11/21 11:45:08;;;;;;;4.40;3.17;;;10.10;99.90;;;;;;4970730;28;20436;-74
2021/11/21 11:47:37;;;;;;;9.80;3.13;;;10.00;99.90;;;;;;4977697;28;20287;-74
2021/11/21 11:50:06;;;;;;;3.85;2.63;;;10.00;99.90;;;;;;4986315;28;20224;-74
2021/11/21 11:52:52;;;;;;;2.20;1.63;;;10.00;99.90;;;;;;4994844;28;20660;-74
2021/11/21 11:55:19;;;;;;;1.75;1.63;;;9.90;99.90;;;;;;4986058;28;20259;-75
2021/11/21 11:57:46;;;;;;;6.63;2.42;;;9.90;99.90;;;;;;4991548;28;20211;-76
2021/11/21 12:00:33;;;;;;;5.55;1.58;;;9.90;99.90;;;;;;4990358;28;20618;-76
2021/11/21 12:03:00;;;;;;;3.70;1.38;;;9.80;99.90;;;;;;4987700;28;20204;-76
2021/11/21 12:05:33;;;;;;;5.70;1.65;;;9.80;99.90;;;;;;4990367;28;20219;-76
2021/11/21 12:08:15;;;;;;;13.38;1.98;;;9.80;99.90;;;;;;4971044;28;20219;-76
2021/11/21 12:10:46;;;;;;;4.00;1.52;;;9.80;99.90;;;;;;4972881;28;20653;-76
2021/11/21 12:13:25;;;;;;;7.63;3.38;;;9.90;99.90;;;;;;4975024;28;20578;-76
2021/11/21 12:15:56;;;;;;;4.72;2.58;;;9.90;99.90;;;;;;4974894;28;20204;-76
2021/11/21 12:18:55;;;;;;;5.15;3.05;;;9.90;99.90;;;;;;4974704;28;20307;-74
2021/11/21 12:21:44;;;;;;;7.43;1.70;;;9.90;99.90;;;;;;4993540;28;20294;-74
2021/11/21 12:24:25;;;;;;;6.28;1.52;;;10.00;99.90;;;;;;4994759;28;20335;-74
2021/11/21 12:26:52;;;;;;;4.60;2.10;;;10.10;99.90;;;;;;4990449;28;20907;-74
2021/11/21 12:29:29;;;;;;;6.65;2.00;;;10.20;99.90;;;;;;4974569;28;20269;-74
2021/11/21 12:32:01;;;;;;;5.47;1.42;;;10.30;99.90;;;;;;4975140;28;20216;-74
2021/11/21 12:34:36;;;;;;;9.05;2.08;;;10.40;99.90;;;;;;4988926;28;20220;-74
2021/11/21 12:37:17;;;;;;;4.32;1.80;;;10.50;99.90;;;;;;4994443;28;20207;-74
2021/11/21 12:39:47;;;;;;;4.95;2.33;;;10.70;99.90;;;;;;4994532;28;20228;-74
2021/11/21 12:42:17;;;;;;;7.53;2.90;;;10.70;99.90;;;;;;4995546;28;20294;-74
2021/11/21 12:44:44;;;;;;;2.33;1.33;;;10.60;99.90;;;;;;4993715;28;20227;-74
2021/11/21 12:47:13;;;;;;;6.65;2.63;;;10.60;99.90;;;;;;4987552;28;20216;-74
2021/11/21 12:49:42;;;;;;;5.75;2.67;;;10.50;99.90;;;;;;4974512;28;20732;-74
2021/11/21 12:52:10;;;;;;;12.63;2.95;;;10.40;99.90;;;;;;4982947;28;20212;-74
2021/11/21 12:54:38;;;;;;;2.05;1.95;;;10.40;99.90;;;;;;4994176;28;20224;-72
2021/11/21 12:57:06;;;;;;;6.03;2.30;;;10.40;99.90;;;;;;4994465;28;20569;-73
2021/11/21 12:59:49;;;;;;;8.00;1.55;;;10.40;99.90;;;;;;4993071;28;20236;-73
2021/11/21 13:02:20;;;;;;;7.00;2.33;;;10.30;99.90;;;;;;4993445;28;20203;-74
2021/11/21 13:04:51;;;;;;;1.25;1.15;;;10.20;99.90;;;;;;4993690;28;20214;-74
2021/11/21 13:07:30;;;;;;;5.70;2.28;;;10.20;99.90;;;;;;4992266;28;20322;-74
2021/11/21 13:09:59;;;;;;;4.63;1.33;;;10.20;99.90;;;;;;4993516;28;20219;-73
2021/11/21 13:12:27;;;;;;;3.03;0.88;;;10.10;99.90;;;;;;4993606;28;20211;-73
2021/11/21 13:14:59;;;;;;;1.65;0.90;;;10.00;99.90;;;;;;4992182;28;20319;-74
2021/11/21 13:17:27;;;;;;;1.25;1.10;;;9.90;99.90;;;;;;4978406;28;20246;-73
2021/11/21 13:20:05;;;;;;;7.53;2.42;;;9.90;99.90;;;;;;4975290;28;20233;-73
2021/11/21 13:22:49;;;;;;;15.77;8.93;;;9.90;99.90;;;;;;4973776;28;20286;-74
2021/11/21 13:25:41;;;;;;;10.93;3.92;;;9.80;99.90;;;;;;4990642;28;20212;-73
2021/11/21 13:28:34;;;;;;;14.35;7.53;;;9.70;99.90;;;;;;4986531;28;20622;-73
2021/11/21 13:31:17;;;;;;;6.90;4.10;;;9.70;99.90;;;;;;4974074;28;20235;-73
2021/11/21 13:33:49;;;;;;;2.83;2.60;;;9.60;99.90;;;;;;4972805;28;20220;-73
2021/11/21 13:36:26;;;;;;;6.50;5.03;;;9.50;99.90;;;;;;4974741;28;20232;-73
2021/11/21 13:38:58;;;;;;;6.28;4.80;;;9.50;99.90;;;;;;4972941;28;20236;-73
2021/11/21 13:41:25;;;;;;;14.95;5.60;;;9.50;99.90;;;;;;4978481;28;20218;-73
2021/11/21 13:43:53;;;;;;;20.75;6.80;;;9.40;99.90;;;;;;4991848;28;20259;-73
2021/11/21 13:46:31;;;;;;;6.03;4.25;;;9.30;99.90;;;;;;4992685;28;20581;-73
2021/11/21 13:49:00;;;;;;;12.68;4.30;;;9.30;99.90;;;;;;4992340;28;20234;-73
2021/11/21 13:51:31;;;;;;;23.73;14.45;;;9.30;99.90;;;;;;4992513;28;20282;-73
2021/11/21 13:54:00;;;;;;;14.95;10.93;;;9.20;99.90;;;;;;4992144;28;20207;-73
2021/11/21 13:56:28;;;;;;;4.57;3.97;;;9.20;99.90;;;;;;4990549;28;20211;-73
2021/11/21 13:59:08;;;;;;;3.33;3.00;;;9.10;99.90;;;;;;4991022;28;20242;-73
2021/11/21 14:01:47;;;;;;;4.00;2.33;;;9.10;99.90;;;;;;4992668;28;20226;-73
2021/11/21 14:04:17;;;;;;;7.50;2.92;;;9.10;99.90;;;;;;4992273;28;20215;-74
2021/11/21 14:06:44;;;;;;;11.52;7.53;;;9.00;99.90;;;;;;4992310;28;20656;-73
2021/11/21 14:09:13;;;;;;;4.60;3.60;;;9.00;99.90;;;;;;4981729;28;20860;-74
2021/11/21 14:11:41;;;;;;;8.50;4.25;;;9.00;99.90;;;;;;4992238;28;20275;-74
2021/11/21 14:14:10;;;;;;;9.25;4.82;;;9.10;99.90;;;;;;4991124;28;20211;-73
2021/11/21 14:16:45;;;;;;;5.15;3.50;;;9.10;99.90;;;;;;4992153;28;20204;-73
2021/11/21 14:19:29;;;;;;;6.95;5.50;;;9.20;99.90;;;;;;4991841;28;20245;-73
2021/11/21 14:22:13;;;;;;;4.68;3.95;;;9.20;99.90;;;;;;4991888;28;20228;-73
2021/11/21 14:24:42;;;;;;;8.05;5.15;;;9.30;99.90;;;;;;4992157;28;20653;-74
2021/11/21 14:27:14;;;;;;;6.57;4.03;;;9.30;99.90;;;;;;4992136;28;20309;-74
2021/11/21 14:29:43;;;;;;;9.75;4.80;;;9.30;99.90;;;;;;4990717;28;20554;-73
2021/11/21 14:32:14;;;;;;;11.80;3.88;;;9.30;99.90;;;;;;4992055;28;20578;-74
2021/11/21 14:34:43;;;;;;;8.35;2.67;;;9.40;99.90;;;;;;4992084;28;20235;-74
2021/11/21 14:37:17;;;;;;;4.30;2.78;;;9.40;99.90;;;;;;4976272;28;20363;-73
2021/11/21 14:39:44;;;;;;;5.55;3.50;;;9.50;99.90;;;;;;4972030;28;20229;-74
2021/11/21 14:42:10;;;;;;;2.35;1.83;;;9.40;99.90;;;;;;4972399;28;20209;-74
2021/11/21 14:44:39;;;;;;;2.03;1.92;;;9.50;99.90;;;;;;4973670;28;20200;-73
2021/11/21 14:47:06;;;;;;;3.05;1.65;;;9.50;99.90;;;;;;4991073;28;20208;-75
2021/11/21 14:49:37;;;;;;;10.38;3.35;;;9.50;99.90;;;;;;4980006;28;20228;-74
2021/11/21 14:52:08;;;;;;;2.08;1.98;;;9.40;99.90;;;;;;4979347;28;20207;-74
2021/11/21 14:54:38;;;;;;;1.83;1.60;;;9.40;99.90;;;;;;4982206;28;20242;-75
2021/11/21 14:57:09;;;;;;;8.00;5.88;;;9.40;99.90;;;;;;4983974;28;20206;-72
2021/11/21 14:59:36;;;;;;;4.63;4.32;;;9.40;99.90;;;;;;4991412;28;20235;-73
2021/11/21 15:02:03;;;;;;;5.88;5.47;;;9.40;99.90;;;;;;4992689;28;20208;-72
2021/11/21 15:04:29;;;;;;;1.73;1.70;;;9.40;99.90;;;;;;4988687;28;20204;-73
2021/11/21 15:06:57;;;;;;;2.15;2.05;;;9.40;99.90;;;;;;4987876;28;20230;-73
2021/11/21 15:09:25;;;;;;;4.90;4.13;;;9.30;99.90;;;;;;4984260;28;20579;-72
2021/11/21 15:11:52;;;;;;;2.05;1.52;;;9.30;99.90;;;;;;4992572;28;20207;-72
2021/11/21 15:14:20;;;;;;;3.55;2.13;;;9.30;99.90;;;;;;4991806;28;20596;-73
2021/11/21 15:16:48;;;;;;;2.78;2.58;;;9.20;99.90;;;;;;4995232;28;20227;-72
2021/11/21 15:19:15;;;;;;;4.82;2.47;;;9.20;99.90;;;;;;4988340;28;20228;-72
2021/11/21 15:21:42;;;;;;;4.70;2.80;;;9.10;99.90;;;;;;4990207;28;20211;-72
2021/11/21 15:24:08;;;;;;;6.38;2.95;;;9.10;99.90;;;;;;4989002;28;20208;-72
2021/11/21 15:26:37;;;;;;;5.85;3.65;;;9.00;99.90;;;;;;4980141;28;20200;-74
2021/11/21 15:29:04;;;;;;;9.82;5.38;;;8.90;99.90;;;;;;4988983;28;20234;-74
2021/11/21 15:31:30;;;;;;;2.78;2.67;;;8.80;99.90;;;;;;4985369;28;20219;-75
2021/11/21 15:33:57;;;;;;;3.83;3.45;;;8.80;99.90;;;;;;4979988;28;20224;-76
2021/11/21 15:36:24;;;;;;;9.55;4.57;;;8.70;99.90;;;;;;4984575;28;20610;-72
2021/11/21 15:38:51;;;;;;;2.97;2.70;;;8.60;99.90;;;;;;4990544;28;20732;-72
2021/11/21 15:41:18;;;;;;;4.25;3.45;;;8.60;99.90;;;;;;4996246;28;20204;-74
2021/11/21 15:43:47;;;;;;;3.47;2.65;;;8.50;99.90;;;;;;4985856;28;20208;-75
2021/11/21 15:46:13;;;;;;;7.43;3.13;;;8.50;99.90;;;;;;4987851;28;20199;-74
2021/11/21 15:48:41;;;;;;;4.85;2.70;;;8.40;99.90;;;;;;4977895;28;20228;-73
2021/11/21 15:51:08;;;;;;;3.67;3.20;;;8.40;99.90;;;;;;4980836;28;20263;-72
2021/11/21 15:53:35;;;;;;;2.55;2.45;;;8.30;99.90;;;;;;4977013;28;20223;-73
2021/11/21 15:56:01;;;;;;;4.93;2.60;;;8.30;99.90;;;;;;4990872;28;20228;-73
2021/11/21 15:58:29;;;;;;;5.63;3.72;;;8.20;99.90;;;;;;4988001;28;20254;-73
2021/11/21 16:00:57;;;;;;;2.45;2.35;;;8.20;99.90;;;;;;4996814;28;20200;-73
2021/11/21 16:03:23;;;;;;;4.80;2.60;;;8.20;99.90;;;;;;4993875;28;20609;-73
2021/11/21 16:05:51;;;;;;;4.22;3.42;;;8.10;99.90;;;;;;4988472;28;20207;-74
2021/11/21 16:08:17;;;;;;;5.82;3.33;;;8.10;99.90;;;;;;4996130;28;20208;-74
2021/11/21 16:10:45;;;;;;;3.72;3.42;;;8.00;99.90;;;;;;5008794;28;20222;-74
2021/11/21 16:13:12;;;;;;;6.43;3.50;;;8.00;99.90;;;;;;4991443;28;20618;-74
2021/11/21 16:15:39;;;;;;;7.55;3.88;;;8.00;99.90;;;;;;4984641;28;20226;-74
2021/11/21 16:18:07;;;;;;;4.63;3.50;;;7.90;99.90;;;;;;4988612;28;20299;-74
2021/11/21 16:20:34;;;;;;;3.08;2.80;;;7.90;99.90;;;;;;4987884;28;20227;-74
2021/11/21 16:23:00;;;;;;;7.78;5.18;;;7.90;99.90;;;;;;4983817;28;20208;-74
2021/11/21 16:25:27;;;;;;;6.85;5.50;;;7.80;99.90;;;;;;4983317;28;20273;-74
2021/11/21 16:27:54;;;;;;;5.00;4.05;;;7.80;99.90;;;;;;4991194;28;20211;-74
2021/11/21 16:30:23;;;;;;;4.53;4.13;;;7.80;99.90;;;;;;4979021;28;20311;-74
2021/11/21 16:32:50;;;;;;;8.20;5.85;;;7.80;99.90;;;;;;4993811;28;20235;-74
2021/11/21 16:35:18;;;;;;;6.82;4.70;;;7.80;99.90;;;;;;4993681;28;20254;-74
2021/11/21 16:37:45;;;;;;;8.90;3.83;;;7.80;99.90;;;;;;4994578;28;20212;-74
2021/11/21 16:40:15;;;;;;;6.53;5.85;;;7.80;99.90;;;;;;4983912;28;20231;-73
2021/11/21 16:42:42;;;;;;;8.95;4.05;;;7.90;99.90;;;;;;4993609;28;20609;-73
2021/11/21 16:45:10;;;;;;;4.63;4.18;;;7.90;99.90;;;;;;4992799;28;20200;-73
2021/11/21 16:47:36;;;;;;;3.53;3.15;;;7.90;99.90;;;;;;4985557;28;20204;-73
2021/11/21 16:50:04;;;;;;;5.43;4.40;;;7.90;99.90;;;;;;4989078;28;20236;-74
2021/11/21 16:52:32;;;;;;;4.75;4.20;;;7.90;99.90;;;;;;4991539;28;20623;-73
2021/11/21 16:54:59;;;;;;;5.40;4.28;;;7.90;99.90;;;;;;4980383;28;20200;-73
2021/11/21 16:57:26;;;;;;;4.05;2.42;;;7.90;99.90;;;;;;4973380;28;20208;-74
2021/11/21 16:59:53;;;;;;;2.80;2.67;;;8.00;99.90;;;;;;4987983;28;20224;-73
2021/11/21 17:02:19;;;;;;;2.55;2.30;;;7.90;99.90;;;;;;4974460;28;20212;-73
2021/11/21 17:04:46;;;;;;;4.18;3.05;;;7.90;99.90;;;;;;4980332;28;20950;-73
2021/11/21 17:07:13;;;;;;;4.53;4.13;;;7.80;99.90;;;;;;4973507;28;20213;-74
2021/11/21 17:09:41;;;;;;;6.80;5.47;;;7.80;99.90;;;;;;4980623;28;20238;-74
2021/11/21 17:12:08;;;;;;;7.85;5.45;;;7.70;99.90;;;;;;4987469;28;20212;-73
2021/11/21 17:14:35;;;;;;;14.85;8.40;;;7.70;99.90;;;;;;4990100;28;20208;-74
2021/11/21 17:17:02;;;;;;;7.60;6.90;;;7.70;99.90;;;;;;4985873;28;20224;-73
2021/11/21 17:19:29;;;;;;;13.35;7.82;;;7.70;99.90;;;;;;4971146;28;20235;-74
2021/11/21 17:21:56;;;;;;;13.13;9.93;;;7.60;99.90;;;;;;4977880;28;20327;-73
2021/11/21 17:24:22;;;;;;;13.18;11.50;;;7.60;99.90;;;;;;4990047;28;20207;-74
2021/11/21 17:26:51;;;;;;;12.38;10.52;;;7.60;99.90;;;;;;4982371;28;20196;-74
2021/11/21 17:29:19;;;;;;;17.55;9.48;;;7.60;99.90;;;;;;4989523;28;20242;-74
2021/11/21 17:31:46;;;;;;;8.90;8.02;;;7.60;99.90;;;;;;4981976;28;20593;-74
2021/11/21 17:34:15;;;;;;;9.25;8.25;;;7.60;99.90;;;;;;4990194;28;20226;-74
2021/11/21 17:36:43;;;;;;;12.02;10.75;;;7.50;99.90;;;;;;4985564;28;20527;-75
2021/11/21 17:39:11;;;;;;;12.77;10.55;;;7.50;99.90;;;;;;4978448;28;20259;-77
2021/11/21 17:41:38;;;;;;;12.52;10.90;;;7.40;99.90;;;;;;4983884;28;20212;-75
2021/11/21 17:44:07;;;;;;;12.23;10.50;;;7.40;99.90;;;;;;4991502;28;20230;-74
2021/11/21 17:46:34;;;;;;;7.97;7.28;;;7.40;99.90;;;;;;4986070;28;20231;-74
2021/11/21 17:49:01;;;;;;;9.23;6.50;;;7.30;99.90;;;;;;4975937;28;20361;-74
2021/11/21 17:51:28;;;;;;;7.82;5.82;;;7.30;99.90;;;;;;4987417;28;20212;-74
2021/11/21 17:53:55;;;;;;;7.57;6.88;;;7.30;99.90;;;;;;4971163;28;20322;-74
2021/11/21 17:56:22;;;;;;;10.30;6.20;;;7.30;99.90;;;;;;4970887;28;20232;-74
2021/11/21 17:58:50;;;;;;;5.35;4.95;;;7.30;99.90;;;;;;4978393;28;20254;-75
2021/11/21 18:01:18;;;;;;;5.75;3.92;;;7.40;99.90;;;;;;4989260;28;20263;-75
2021/11/21 18:03:47;;;;;;;8.35;4.25;;;7.30;99.90;;;;;;4984888;28;20208;-74